Terminal Aerodrome Forecast
Issued by NWS

Home | Current Version | Previous Version | Text Only | Print | Product List | Glossary On
Versions: 1 2 3 4 5 6 7 8 9 10 11 12 13 14 15 16 17 18 19 20 21 22 23 24 25 26 27 28 29
000
FTUS44 KHGX 230758 AAA
TAFLBX
TAF AMD
KLBX 230758Z 2308/2406 00000KT 1/4SM FG VV001
      TEMPO 2312/2314 1SM BR VV005
     FM231500 16005KT P6SM SCT020
     FM231800 16011KT P6SM SCT040
     FM240500 17009KT 4SM BR SCT010=

USA.gov is the U.S. government's official web portal to all federal, state and local government web resources and services.